createdAt,value
2023-05-01T00:01:43.927Z,93346.47
2023-05-01T00:04:12.284Z,93347.37
2023-05-01T00:06:40.059Z,93347.63
2023-05-01T00:09:07.366Z,93350.00
2023-05-01T00:11:36.295Z,93341.94
2023-05-01T00:14:04.180Z,93356.91
2023-05-01T00:16:31.578Z,93362.59
2023-05-01T00:18:59.283Z,93362.72
2023-05-01T00:21:28.434Z,93358.88
2023-05-01T00:23:55.944Z,93358.25
2023-05-01T00:26:26.478Z,93366.50
2023-05-01T00:28:54.366Z,93359.84
2023-05-01T00:31:21.599Z,93368.53
2023-05-01T00:33:49.293Z,93369.72
2023-05-01T00:36:16.507Z,93376.06
2023-05-01T00:38:43.727Z,93374.31
2023-05-01T00:41:11.288Z,93374.75
2023-05-01T00:43:38.584Z,93369.34
2023-05-01T00:46:06.388Z,93375.13
2023-05-01T00:48:34.226Z,93374.97
2023-05-01T00:51:03.689Z,93376.81
2023-05-01T00:53:31.400Z,93385.72
2023-05-01T00:55:59.644Z,93373.72
2023-05-01T00:58:27.510Z,93379.78
2023-05-01T01:00:55.962Z,93391.63
2023-05-01T01:03:23.669Z,93383.94
2023-05-01T01:06:05.084Z,93391.81
2023-05-01T01:09:07.930Z,93388.62
2023-05-01T01:12:01.339Z,93390.59
2023-05-01T01:14:33.805Z,93399.63
2023-05-01T01:17:24.864Z,93386.81
2023-05-01T01:20:06.164Z,93400.16
2023-05-01T01:22:36.074Z,93402.09
2023-05-01T01:25:34.885Z,93400.16
2023-05-01T01:28:34.786Z,93400.53
2023-05-01T01:31:28.111Z,93405.12
2023-05-01T01:34:10.249Z,93409.84
2023-05-01T01:36:42.713Z,93412.44
2023-05-01T01:39:35.843Z,93409.88
2023-05-01T01:42:09.437Z,93400.78
2023-05-01T01:44:51.154Z,93408.47
2023-05-01T01:47:23.397Z,93411.22
2023-05-01T01:49:54.520Z,93404.75
2023-05-01T01:52:24.115Z,93408.56
2023-05-01T01:54:58.752Z,93405.12
2023-05-01T01:57:28.630Z,93400.16
2023-05-01T01:59:59.296Z,93387.50
2023-05-01T02:02:28.671Z,93395.19
2023-05-01T02:04:57.494Z,93402.72
2023-05-01T02:07:27.112Z,93407.69
2023-05-01T02:09:56.519Z,93397.62
2023-05-01T02:12:27.054Z,93406.72
2023-05-01T02:14:56.361Z,93404.34
2023-05-01T02:17:25.127Z,93402.69
2023-05-01T02:19:55.455Z,93406.88
2023-05-01T02:22:26.116Z,93406.72
2023-05-01T02:24:56.113Z,93402.31
2023-05-01T02:27:36.316Z,93406.50
2023-05-01T02:30:05.738Z,93397.62
2023-05-01T02:32:33.876Z,93380.84
2023-05-01T02:35:01.836Z,93390.72
2023-05-01T02:37:31.278Z,93386.38
2023-05-01T02:39:59.438Z,93388.25
2023-05-01T02:42:29.316Z,93387.66
2023-05-01T02:45:06.019Z,93395.22
2023-05-01T02:47:38.626Z,93390.31
2023-05-01T02:50:08.175Z,93396.78
2023-05-01T02:52:37.632Z,93397.47
2023-05-01T02:55:08.685Z,93397.41
2023-05-01T02:57:36.178Z,93399.59
2023-05-01T03:00:04.555Z,93401.09
2023-05-01T03:02:33.784Z,93400.75
2023-05-01T03:05:01.135Z,93399.41
2023-05-01T03:07:35.255Z,93402.22
2023-05-01T03:10:08.010Z,93400.69
2023-05-01T03:12:35.446Z,93403.47
2023-05-01T03:15:03.698Z,93411.69
2023-05-01T03:17:31.643Z,93421.19
2023-05-01T03:19:59.013Z,93416.88
2023-05-01T03:22:29.788Z,93417.50
2023-05-01T03:24:57.528Z,93430.22
2023-05-01T03:27:25.135Z,93421.19
2023-05-01T03:29:54.857Z,93419.56
2023-05-01T03:32:26.295Z,93419.03
2023-05-01T03:34:54.806Z,93424.63
2023-05-01T03:37:22.310Z,93430.16
2023-05-01T03:39:51.997Z,93425.09
2023-05-01T03:42:20.656Z,93426.84
2023-05-01T03:44:54.653Z,93428.41
2023-05-01T03:47:31.890Z,93429.06
2023-05-01T03:49:59.744Z,93432.84
2023-05-01T03:52:37.880Z,93430.69
2023-05-01T03:55:06.431Z,93441.03
2023-05-01T03:57:35.756Z,93435.97
2023-05-01T04:00:05.571Z,93438.75
2023-05-01T04:02:42.889Z,93445.97
2023-05-01T04:05:12.501Z,93452.59
2023-05-01T04:07:45.479Z,93451.50
2023-05-01T04:10:13.755Z,93457.88
2023-05-01T04:12:43.868Z,93461.81
2023-05-01T04:15:12.732Z,93466.66
2023-05-01T04:17:44.019Z,93458.59
2023-05-01T04:20:11.828Z,93462.37
2023-05-01T04:22:39.320Z,93461.69
2023-05-01T04:25:09.098Z,93466.50
2023-05-01T04:27:36.422Z,93459.63
2023-05-01T04:30:06.394Z,93453.03
2023-05-01T04:33:11.206Z,93447.81
2023-05-01T04:36:04.583Z,93445.53
2023-05-01T04:38:33.217Z,93457.91
2023-05-01T04:41:01.007Z,93458.56
2023-05-01T04:43:54.107Z,93457.25
2023-05-01T04:46:24.240Z,93459.16
2023-05-01T04:49:01.238Z,93460.19
2023-05-01T04:51:29.652Z,93464.00
2023-05-01T04:54:00.226Z,93462.56
2023-05-01T04:56:41.739Z,93468.28
2023-05-01T04:59:09.673Z,93461.87
2023-05-01T05:01:37.705Z,93464.94
2023-05-01T05:04:11.524Z,93454.53
2023-05-01T05:06:46.251Z,93464.78
2023-05-01T05:09:20.162Z,93469.34
2023-05-01T05:14:39.576Z,93462.75
2023-05-01T05:17:07.332Z,93466.69
2023-05-01T05:19:42.938Z,93467.41
2023-05-01T05:22:12.814Z,93476.09
2023-05-01T05:24:42.692Z,93473.19
2023-05-01T05:27:10.033Z,93475.06
2023-05-01T05:29:37.705Z,93473.69
2023-05-01T05:32:06.407Z,93487.81
2023-05-01T05:34:33.904Z,93483.94
2023-05-01T05:37:01.972Z,93487.47
2023-05-01T05:39:29.726Z,93486.00
2023-05-01T05:41:57.332Z,93489.28
2023-05-01T05:44:30.149Z,93496.25
2023-05-01T05:46:57.833Z,93500.75
2023-05-01T05:49:27.185Z,93502.31
2023-05-01T05:51:54.659Z,93502.59
2023-05-01T05:54:22.820Z,93508.88
2023-05-01T05:56:58.662Z,93505.50
2023-05-01T05:59:29.735Z,93495.59
2023-05-01T06:02:02.185Z,93491.94
2023-05-01T06:04:30.412Z,93486.09
2023-05-01T06:06:58.294Z,93495.53
2023-05-01T06:09:44.169Z,93493.53
2023-05-01T06:12:12.946Z,93502.06
2023-05-01T06:14:42.223Z,93489.72
2023-05-01T06:17:09.783Z,93499.22
2023-05-01T06:20:06.925Z,93503.03
2023-05-01T06:22:47.388Z,93484.66
2023-05-01T06:25:25.318Z,93494.19
2023-05-01T06:27:53.044Z,93496.38
2023-05-01T06:30:22.109Z,93491.81
2023-05-01T06:32:50.454Z,93496.78
2023-05-01T06:35:18.613Z,93489.38
2023-05-01T06:37:56.309Z,93491.44
2023-05-01T06:40:40.961Z,93491.56
2023-05-01T06:43:09.007Z,93485.81
2023-05-01T06:45:55.053Z,93470.72
2023-05-01T06:48:28.651Z,93485.28
2023-05-01T06:50:56.992Z,93478.19
2023-05-01T06:53:24.993Z,93485.56
2023-05-01T06:55:52.667Z,93476.78
2023-05-01T06:58:23.960Z,93462.31
2023-05-01T07:00:56.548Z,93479.03
2023-05-01T07:03:37.281Z,93470.00
2023-05-01T07:06:08.428Z,93458.59
2023-05-01T07:08:36.315Z,93474.03
2023-05-01T07:11:04.069Z,93471.69
2023-05-01T07:13:33.680Z,93469.94
2023-05-01T07:16:02.071Z,93466.72
2023-05-01T07:18:29.932Z,93470.88
2023-05-01T07:20:58.371Z,93470.31
2023-05-01T07:23:27.287Z,93475.09
2023-05-01T07:25:55.007Z,93475.38
2023-05-01T07:28:23.482Z,93476.19
2023-05-01T07:30:52.309Z,93473.28
2023-05-01T07:33:20.084Z,93476.75
2023-05-01T07:35:48.364Z,93475.16
2023-05-01T07:38:16.772Z,93482.00
2023-05-01T07:40:44.454Z,93478.84
2023-05-01T07:43:24.331Z,93484.16
2023-05-01T07:45:59.083Z,93477.78
2023-05-01T07:48:28.767Z,93486.25
2023-05-01T07:50:57.278Z,93480.72
2023-05-01T07:53:24.645Z,93475.69
2023-05-01T07:56:23.429Z,93473.84
2023-05-01T07:58:56.012Z,93475.44
2023-05-01T08:01:24.568Z,93480.44
2023-05-01T08:03:52.730Z,93485.72
2023-05-01T08:06:24.536Z,93481.75
2023-05-01T08:08:52.780Z,93483.59
2023-05-01T08:11:25.548Z,93475.16
2023-05-01T08:13:59.797Z,93479.41
2023-05-01T08:16:28.224Z,93485.69
2023-05-01T08:18:56.648Z,93484.13
2023-05-01T08:21:25.935Z,93471.22
2023-05-01T08:23:59.307Z,93485.47
2023-05-01T08:26:27.456Z,93486.25
2023-05-01T08:29:20.072Z,93486.78
2023-05-01T08:31:57.151Z,93487.56
2023-05-01T08:34:25.443Z,93482.81
2023-05-01T08:36:57.485Z,93484.94
2023-05-01T08:39:26.002Z,93483.06
2023-05-01T08:41:58.683Z,93476.37
2023-05-01T08:44:29.292Z,93480.50
2023-05-01T08:47:16.041Z,93475.31
2023-05-01T08:49:48.211Z,93470.00
2023-05-01T08:52:28.784Z,93464.81
2023-05-01T08:54:58.197Z,93467.84
2023-05-01T08:57:31.015Z,93464.72
2023-05-01T08:59:59.367Z,93460.00
2023-05-01T09:02:30.225Z,93464.97
2023-05-01T09:05:01.267Z,93466.09
2023-05-01T09:07:30.134Z,93450.41
2023-05-01T09:10:04.697Z,93456.44
2023-05-01T09:12:35.933Z,93451.81
2023-05-01T09:15:07.546Z,93452.13
2023-05-01T09:17:37.886Z,93454.50
2023-05-01T09:20:10.187Z,93456.91
2023-05-01T09:22:43.956Z,93450.09
2023-05-01T09:28:18.069Z,93459.88
2023-05-01T09:30:47.902Z,93456.53
2023-05-01T09:33:18.994Z,93455.56
2023-05-01T09:36:12.542Z,93452.47
2023-05-01T09:39:09.225Z,93451.41
2023-05-01T09:41:53.301Z,93455.06
2023-05-01T09:44:21.529Z,93453.06
2023-05-01T09:46:49.816Z,93446.50
2023-05-01T09:49:20.782Z,93452.69
2023-05-01T09:51:49.875Z,93448.56
2023-05-01T09:54:20.076Z,93448.94
2023-05-01T09:56:52.589Z,93453.56
2023-05-01T09:59:21.313Z,93456.81
2023-05-01T10:01:51.344Z,93449.41
2023-05-01T10:04:30.785Z,93449.19
2023-05-01T10:06:58.650Z,93451.16
2023-05-01T10:09:32.893Z,93445.94
2023-05-01T10:12:00.739Z,93443.47
2023-05-01T10:14:29.970Z,93446.00
2023-05-01T10:16:58.243Z,93449.31
2023-05-01T10:19:26.196Z,93440.34
2023-05-01T10:21:54.022Z,93431.19
2023-05-01T10:24:21.820Z,93442.66
2023-05-01T10:26:50.204Z,93436.31
2023-05-01T10:29:21.132Z,93420.00
2023-05-01T10:31:48.609Z,93429.97
2023-05-01T10:34:20.286Z,93436.03
2023-05-01T10:36:57.860Z,93434.09
2023-05-01T10:39:51.640Z,93436.56
2023-05-01T10:42:23.494Z,93445.13
2023-05-01T10:44:51.077Z,93428.09
2023-05-01T10:47:25.080Z,93429.75
2023-05-01T10:50:22.081Z,93432.53
2023-05-01T10:53:11.969Z,93421.88
2023-05-01T10:55:43.624Z,93421.22
2023-05-01T10:58:37.569Z,93409.28
2023-05-01T11:01:36.972Z,93385.31
2023-05-01T11:04:24.102Z,93438.44
2023-05-01T11:07:08.518Z,93433.22
2023-05-01T11:09:39.890Z,93452.88
2023-05-01T11:12:08.458Z,93440.94
2023-05-01T11:14:54.627Z,93443.28
2023-05-01T11:17:49.943Z,93453.75
2023-05-01T11:20:27.409Z,93454.19
2023-05-01T11:23:00.971Z,93460.09
2023-05-01T11:25:35.071Z,93468.25
2023-05-01T11:28:07.126Z,93468.72
2023-05-01T11:30:53.256Z,93478.44
2023-05-01T11:33:59.496Z,93478.41
2023-05-01T11:36:52.396Z,93485.44
2023-05-01T11:39:25.755Z,93479.03
2023-05-01T11:42:10.083Z,93476.19
2023-05-01T11:44:38.013Z,93481.78
2023-05-01T11:47:07.575Z,93480.66
2023-05-01T11:49:36.251Z,93479.31
2023-05-01T11:52:04.445Z,93476.94
2023-05-01T11:54:31.846Z,93472.91
2023-05-01T11:57:01.182Z,93473.97
2023-05-01T11:59:29.395Z,93476.94
2023-05-01T12:01:56.804Z,93477.66
2023-05-01T12:04:31.586Z,93481.94
2023-05-01T12:06:59.663Z,93483.25
2023-05-01T12:09:28.483Z,93477.47
2023-05-01T12:11:58.506Z,93479.13
2023-05-01T12:14:26.060Z,93482.56
2023-05-01T12:16:54.422Z,93477.31
2023-05-01T12:19:23.969Z,93469.37
2023-05-01T12:22:07.066Z,93475.28
2023-05-01T12:24:34.860Z,93479.63
2023-05-01T12:27:03.747Z,93479.78
2023-05-01T12:29:41.767Z,93471.25
2023-05-01T12:32:10.897Z,93477.84
2023-05-01T12:34:39.854Z,93476.22
2023-05-01T12:37:07.547Z,93477.66
2023-05-01T12:39:42.559Z,93474.53
2023-05-01T12:42:14.892Z,93472.91
2023-05-01T12:44:43.357Z,93486.28
2023-05-01T12:47:13.194Z,93488.34
2023-05-01T12:49:40.806Z,93490.16
2023-05-01T12:52:09.434Z,93487.16
2023-05-01T12:54:39.082Z,93481.00
2023-05-01T12:57:08.525Z,93479.03
2023-05-01T12:59:37.825Z,93471.88
2023-05-01T13:02:13.522Z,93474.78
2023-05-01T13:04:43.317Z,93476.13
2023-05-01T13:07:16.671Z,93492.97
2023-05-01T13:10:00.540Z,93480.28
2023-05-01T13:12:28.828Z,93488.72
2023-05-01T13:14:57.094Z,93487.28
2023-05-01T13:17:32.193Z,93492.72
2023-05-01T13:20:02.519Z,93498.13
2023-05-01T13:22:34.929Z,93505.41
2023-05-01T13:25:04.872Z,93495.97
2023-05-01T13:27:32.771Z,93494.28
2023-05-01T13:30:00.867Z,93503.62
2023-05-01T13:32:28.928Z,93505.22
2023-05-01T13:35:01.092Z,93494.75
2023-05-01T13:37:30.764Z,93502.25
2023-05-01T13:40:01.091Z,93504.94
2023-05-01T13:42:29.520Z,93503.00
2023-05-01T13:44:58.318Z,93505.88
2023-05-01T13:47:27.618Z,93510.03
2023-05-01T13:49:55.886Z,93502.09
2023-05-01T13:52:23.473Z,93509.69
2023-05-01T13:54:55.806Z,93503.69
2023-05-01T13:57:23.773Z,93513.06
2023-05-01T13:59:51.872Z,93512.81
2023-05-01T14:02:38.597Z,93508.84
2023-05-01T14:05:09.751Z,93506.84
2023-05-01T14:08:04.490Z,93500.22
2023-05-01T14:10:32.222Z,93503.84
2023-05-01T14:12:59.980Z,93503.66
2023-05-01T14:15:28.984Z,93501.66
2023-05-01T14:17:56.876Z,93501.94
2023-05-01T14:20:27.290Z,93491.72
2023-05-01T14:22:54.848Z,93494.63
2023-05-01T14:25:25.654Z,93500.59
2023-05-01T14:27:55.128Z,93499.34
2023-05-01T14:30:33.868Z,93508.84
2023-05-01T14:33:03.462Z,93500.22
2023-05-01T14:35:31.373Z,93491.78
2023-05-01T14:38:16.796Z,93487.38
2023-05-01T14:40:45.813Z,93501.31
2023-05-01T14:43:19.435Z,93497.97
2023-05-01T14:45:49.284Z,93499.31
2023-05-01T14:48:21.615Z,93495.84
2023-05-01T14:50:51.175Z,93499.47
2023-05-01T14:53:18.807Z,93496.38
2023-05-01T14:55:50.152Z,93500.50
2023-05-01T14:58:17.902Z,93496.94
2023-05-01T15:00:45.527Z,93505.50
2023-05-01T15:03:12.984Z,93511.34
2023-05-01T15:05:41.995Z,93503.59
2023-05-01T15:08:09.525Z,93503.22
2023-05-01T15:10:38.236Z,93511.53
2023-05-01T15:13:06.935Z,93510.78
2023-05-01T15:15:34.307Z,93501.97
2023-05-01T15:18:02.616Z,93496.06
2023-05-01T15:20:30.793Z,93502.06
2023-05-01T15:22:58.164Z,93503.06
2023-05-01T15:25:25.518Z,93501.16
2023-05-01T15:27:53.224Z,93497.47
2023-05-01T15:30:20.644Z,93506.81
2023-05-01T15:32:48.670Z,93500.13
2023-05-01T15:35:16.960Z,93497.72
2023-05-01T15:37:44.567Z,93504.19
2023-05-01T15:40:12.263Z,93517.72
2023-05-01T15:42:40.570Z,93523.25
2023-05-01T15:45:08.647Z,93516.84
2023-05-01T15:47:36.051Z,93518.97
2023-05-01T15:50:04.362Z,93515.72
2023-05-01T15:52:32.012Z,93532.38
2023-05-01T15:54:59.339Z,93519.34
2023-05-01T15:57:26.952Z,93515.31
2023-05-01T15:59:55.999Z,93519.50
2023-05-01T16:02:23.773Z,93524.09
2023-05-01T16:04:52.102Z,93516.75
2023-05-01T16:07:21.407Z,93519.62
2023-05-01T16:09:49.513Z,93514.34
2023-05-01T16:12:17.340Z,93506.38
2023-05-01T16:14:44.917Z,93508.53
2023-05-01T16:17:12.395Z,93511.88
2023-05-01T16:19:40.210Z,93509.09
2023-05-01T16:22:08.115Z,93521.44
2023-05-01T16:24:36.711Z,93519.44
2023-05-01T16:27:04.442Z,93517.13
2023-05-01T16:29:35.923Z,93521.47
2023-05-01T16:32:05.928Z,93524.09
2023-05-01T16:34:33.482Z,93523.00
2023-05-01T16:37:00.872Z,93526.59
2023-05-01T16:39:28.597Z,93526.91
2023-05-01T16:41:56.408Z,93526.06
2023-05-01T16:44:23.901Z,93533.72
2023-05-01T16:46:56.427Z,93533.53
2023-05-01T16:49:25.078Z,93534.94
2023-05-01T16:51:56.832Z,93533.94
2023-05-01T16:54:26.066Z,93541.38
2023-05-01T16:56:53.896Z,93535.84
2023-05-01T16:59:23.312Z,93537.47
2023-05-01T17:01:51.033Z,93544.03
2023-05-01T17:04:18.794Z,93543.00
2023-05-01T17:06:46.393Z,93550.66
2023-05-01T17:09:13.772Z,93555.44
2023-05-01T17:11:56.803Z,93549.62
2023-05-01T17:14:24.936Z,93549.88
2023-05-01T17:16:53.399Z,93555.38
2023-05-01T17:19:21.361Z,93555.16
2023-05-01T17:21:48.731Z,93557.53
2023-05-01T17:24:16.680Z,93562.28
2023-05-01T17:26:44.565Z,93563.34
2023-05-01T17:29:11.900Z,93572.00
2023-05-01T17:31:39.280Z,93578.63
2023-05-01T17:34:07.085Z,93572.78
2023-05-01T17:36:34.458Z,93577.03
2023-05-01T17:39:02.447Z,93582.81
2023-05-01T17:41:30.248Z,93588.34
2023-05-01T17:43:57.682Z,93592.78
2023-05-01T17:46:25.336Z,93597.50
2023-05-01T17:48:53.768Z,93596.44
2023-05-01T17:51:21.245Z,93591.47
2023-05-01T17:53:48.655Z,93594.12
2023-05-01T17:56:17.885Z,93601.25
2023-05-01T17:58:45.301Z,93605.50
2023-05-01T18:01:12.844Z,93602.78
2023-05-01T18:03:40.841Z,93600.91
2023-05-01T18:06:08.398Z,93613.31
2023-05-01T18:08:38.720Z,93614.34
2023-05-01T18:11:07.195Z,93613.81
2023-05-01T18:13:38.397Z,93611.97
2023-05-01T18:16:06.629Z,93618.53
2023-05-01T18:18:34.926Z,93616.44
2023-05-01T18:21:02.472Z,93621.97
2023-05-01T18:23:29.785Z,93625.41
2023-05-01T18:25:57.532Z,93632.72
2023-05-01T18:28:25.028Z,93630.06
2023-05-01T18:30:52.416Z,93629.59
2023-05-01T18:33:22.198Z,93629.94
2023-05-01T18:35:49.855Z,93634.34
2023-05-01T18:38:17.270Z,93633.94
2023-05-01T18:40:45.005Z,93640.97
2023-05-01T18:43:14.255Z,93637.78
2023-05-01T18:45:41.787Z,93637.19
2023-05-01T18:48:09.599Z,93643.16
2023-05-01T18:50:37.123Z,93651.91
2023-05-01T18:53:04.589Z,93645.47
2023-05-01T18:55:33.340Z,93660.78
2023-05-01T18:58:02.201Z,93655.09
2023-05-01T19:00:30.836Z,93656.97
2023-05-01T19:02:59.188Z,93663.19
2023-05-01T19:05:26.590Z,93664.31
2023-05-01T19:07:56.308Z,93661.34
2023-05-01T19:10:24.182Z,93674.13
2023-05-01T19:12:51.558Z,93674.59
2023-05-01T19:15:19.075Z,93672.84
2023-05-01T19:17:47.116Z,93672.13
2023-05-01T19:20:14.663Z,93676.03
2023-05-01T19:22:42.155Z,93679.16
2023-05-01T19:25:10.279Z,93687.38
2023-05-01T19:27:37.861Z,93685.59
2023-05-01T19:30:07.197Z,93686.81
2023-05-01T19:32:36.288Z,93683.16
2023-05-01T19:35:03.923Z,93685.66
2023-05-01T19:37:31.588Z,93684.59
2023-05-01T19:39:59.569Z,93685.19
2023-05-01T19:42:27.715Z,93684.31
2023-05-01T19:44:55.190Z,93687.25
2023-05-01T19:47:22.994Z,93686.41
2023-05-01T19:49:50.427Z,93686.09
2023-05-01T19:52:17.797Z,93690.47
2023-05-01T19:54:45.903Z,93692.00
2023-05-01T19:57:13.290Z,93694.56
2023-05-01T19:59:41.490Z,93690.72
2023-05-01T20:02:09.401Z,93696.16
2023-05-01T20:04:37.277Z,93707.22
2023-05-01T20:07:04.955Z,93698.44
2023-05-01T20:09:32.419Z,93694.31
2023-05-01T20:12:00.156Z,93695.81
2023-05-01T20:14:28.108Z,93698.91
2023-05-01T20:16:55.630Z,93695.34
2023-05-01T20:19:23.539Z,93692.72
2023-05-01T20:21:51.134Z,93692.25
2023-05-01T20:24:20.805Z,93693.66
2023-05-01T20:26:50.394Z,93691.94
2023-05-01T20:29:18.115Z,93684.66
2023-05-01T20:31:45.626Z,93691.94
2023-05-01T20:34:13.401Z,93696.03
2023-05-01T20:36:40.772Z,93691.13
2023-05-01T20:39:08.667Z,93694.22
2023-05-01T20:41:36.401Z,93683.84
2023-05-01T20:44:04.103Z,93684.94
2023-05-01T20:46:31.621Z,93693.53
2023-05-01T20:48:59.388Z,93698.00
2023-05-01T20:51:32.325Z,93687.72
2023-05-01T20:54:00.121Z,93692.72
2023-05-01T20:56:27.627Z,93693.69
2023-05-01T20:58:55.353Z,93699.13
2023-05-01T21:01:23.047Z,93688.91
2023-05-01T21:03:50.637Z,93689.63
2023-05-01T21:06:18.251Z,93687.94
2023-05-01T21:08:46.429Z,93693.94
2023-05-01T21:11:13.817Z,93701.56
2023-05-01T21:13:41.138Z,93695.97
2023-05-01T21:16:14.701Z,93692.00
2023-05-01T21:18:42.655Z,93696.97
2023-05-01T21:21:10.852Z,93702.19
2023-05-01T21:23:42.978Z,93702.84
2023-05-01T21:26:11.103Z,93690.91
2023-05-01T21:28:39.532Z,93699.16
2023-05-01T21:31:06.882Z,93691.00
2023-05-01T21:33:34.643Z,93696.16
2023-05-01T21:36:01.970Z,93694.91
2023-05-01T21:38:30.014Z,93696.72
2023-05-01T21:40:57.725Z,93701.22
2023-05-01T21:43:24.991Z,93696.09
2023-05-01T21:45:52.448Z,93701.16
2023-05-01T21:48:20.381Z,93701.03
2023-05-01T21:50:50.295Z,93707.81
2023-05-01T21:53:17.736Z,93703.94
2023-05-01T21:55:49.254Z,93706.78
2023-05-01T21:58:16.702Z,93711.91
2023-05-01T22:00:46.146Z,93707.44
2023-05-01T22:03:17.364Z,93705.66
2023-05-01T22:05:44.748Z,93715.28
2023-05-01T22:08:12.160Z,93715.09
2023-05-01T22:10:41.230Z,93712.97
2023-05-01T22:13:08.582Z,93724.59
2023-05-01T22:15:35.872Z,93724.16
2023-05-01T22:18:03.720Z,93725.63
2023-05-01T22:20:32.140Z,93732.22
2023-05-01T22:22:59.344Z,93729.72
2023-05-01T22:25:26.997Z,93736.56
2023-05-01T22:27:54.309Z,93738.16
2023-05-01T22:30:21.582Z,93734.72
2023-05-01T22:32:49.214Z,93731.94
2023-05-01T22:35:16.525Z,93731.34
2023-05-01T22:37:43.807Z,93734.63
2023-05-01T22:40:11.940Z,93736.34
2023-05-01T22:42:39.304Z,93730.47
2023-05-01T22:45:07.299Z,93739.53
2023-05-01T22:47:34.965Z,93733.06
2023-05-01T22:50:02.648Z,93730.63
2023-05-01T22:52:30.193Z,93732.47
2023-05-01T22:54:57.938Z,93734.47
2023-05-01T22:57:25.348Z,93738.13
2023-05-01T22:59:52.764Z,93732.25
2023-05-01T23:02:20.880Z,93731.38
2023-05-01T23:04:48.579Z,93735.00
2023-05-01T23:07:15.920Z,93729.75
2023-05-01T23:09:43.686Z,93731.06
2023-05-01T23:12:19.341Z,93727.66
2023-05-01T23:14:47.188Z,93730.41
2023-05-01T23:17:15.156Z,93725.09
2023-05-01T23:19:43.786Z,93727.81
2023-05-01T23:22:13.270Z,93720.34
2023-05-01T23:24:45.267Z,93715.91
2023-05-01T23:27:14.981Z,93719.59
2023-05-01T23:29:44.606Z,93718.88
2023-05-01T23:32:25.883Z,93714.88
2023-05-01T23:35:02.867Z,93704.72
2023-05-01T23:37:30.258Z,93714.25
2023-05-01T23:39:59.896Z,93710.31
2023-05-01T23:42:28.405Z,93712.28
2023-05-01T23:44:56.664Z,93712.78
2023-05-01T23:47:24.399Z,93715.63
2023-05-01T23:49:51.991Z,93712.13
2023-05-01T23:52:19.230Z,93710.72
2023-05-01T23:54:46.964Z,93707.09
2023-05-01T23:57:14.174Z,93710.50
2023-05-01T23:59:41.626Z,93708.13
